Angelo Coast Range Reserve, California Weather observations

Data are for 10 minute period ending at time listed.
 Day   Time   Solar   Ave.   Ave.  Ave.  Vector  Max.   Baro.   Total    
  of    of     Rad.   Air    Rel.  Wind   Wind   Wind  Press.  Precip.   
Year   Day            Temp.  Hum.  Speed  Dir.   Gust                    
2020   (PST)  Kw/m2    F      %     mph   deg.    mph    mb.     in.     
-------------------------------------------------------------------------
 268    0:00   0.00   62.3    89    1.0   163     2.1   970.3    0.00 
 268    0:10   0.00   62.3    89    0.9   194     1.8   970.3    0.00 
 268    0:20   0.00   62.2    89    1.9   173     3.3   970.3    0.00 
 268    0:30   0.00   62.1    90    1.5   170     2.6   970.3    0.00 
 268    0:40   0.00   61.9    92    0.0   192     0.5   970.4    0.00 
 268    0:50   0.00   61.7    92    0.0     0     0.0   970.5    0.00 
 268    1:00   0.00   61.6    94    0.6   185     1.2   970.3    0.00 
 268    1:10   0.00   61.4    94    0.1   180     0.6   970.3    0.00 
 268    1:20   0.00   61.3    95    0.0   180     0.1   970.4    0.00 
 268    1:30   0.00   61.2    95    0.3   180     1.1   970.3    0.00 
 268    1:40   0.00   60.9    95    0.4   180     1.2   970.2    0.00 
 268    1:50   0.00   60.5    96    0.0     0     0.0   970.3    0.00 
 268    2:00   0.00   60.5    96    0.0     0     0.0   970.3    0.00 
 268    2:10   0.00   60.5    96    0.2   180     1.0   970.2    0.00 
 268    2:20   0.00   60.5    96    0.0     0     0.0   970.2    0.00 
 268    2:30   0.00   60.5    96    0.0   180     0.4   970.3    0.00 
 268    2:40   0.00   60.6    96    0.4   184     1.5   970.2    0.00 
 268    2:50   0.00   60.7    96    0.3   192     1.1   970.3    0.00 
 268    3:00   0.00   60.6    96    0.6   184     1.5   970.3    0.00 
 268    3:10   0.00   60.7    96    0.0   192     0.5   970.3    0.00 
 268    3:20   0.00   60.7    96    0.2   160     1.5   970.3    0.00 
 268    3:30   0.00   60.7    96    0.0     0     0.0   970.2    0.00 
 268    3:40   0.00   60.8    96    0.0     0     0.0   970.2    0.00 
 268    3:50   0.00   60.8    95    0.0     0     0.0   970.1    0.00 
 268    4:00   0.00   60.6    96    0.5   167     2.0   969.9    0.00 
 268    4:10   0.00   60.6    96    0.2   300     1.5   969.8    0.00 
 268    4:20   0.00   60.6    96    0.2   292     1.0   969.8    0.00 
 268    4:30   0.00   60.5    96    1.2   179     1.8   969.8    0.00 
 268    4:40   0.00   60.5    96    1.0   177     2.0   969.7    0.00 
 268    4:50   0.00   60.5    96    0.0     0     0.0   969.7    0.00 
 268    5:00   0.00   60.6    95    0.0   184     0.8   969.8    0.00 
 268    5:10   0.00   60.6    95    0.1   189     0.8   969.8    0.00 
 268    5:20   0.00   60.6    95    0.1   189     0.7   969.8    0.00 
 268    5:30   0.00   60.7    96    0.0     0     0.0   969.9    0.00 
 268    5:40   0.00   60.6    96    0.1   173     0.7   969.9    0.00 
 268    5:50   0.00   60.6    96    0.0   173     0.7   969.9    0.00 
 268    6:00   0.00   60.5    96    0.0     0     0.0   970.0    0.00 
 268    6:10   0.00   60.5    96    0.0     0     0.0   970.1    0.00 
 268    6:20   0.01   60.5    96    0.4   174     1.5   970.0    0.00 
 268    6:30   0.01   60.3    97    1.6   173     2.3   970.0    0.00 
 268    6:40   0.02   60.4    97    0.1   172     1.2   970.0    0.00 
 268    6:50   0.03   60.7    97    0.0     0     0.0   970.0    0.01 
 268    7:00   0.04   60.9    97    0.1   172     1.5   970.1    0.00 
 268    7:10   0.04   60.9    96    1.4   171     2.2   970.2    0.00 
 268    7:20   0.04   60.9    96    1.6   169     2.4   970.2    0.00 
 268    7:30   0.04   61.1    96    1.3   138     2.3   970.4    0.00 
 268    7:40   0.07   61.1    95    2.0    99     5.1   970.4    0.00 
 268    7:50   0.06   61.3    95    0.9   158     1.7   970.5    0.00 
 268    8:00   0.08   61.8    95    0.3   174     1.8   970.5    0.00 
 268    8:10   0.10   62.0    94    0.8   169     2.0   970.6    0.00 
 268    8:20   0.14   62.7    94    0.7   153     1.8   970.6    0.00 
 268    8:30   0.18   63.3    91    1.3   144     2.3   970.6    0.00 
 268    8:40   0.15   63.5    90    0.6    76     1.8   970.7    0.00 
 268    8:50   0.10   63.4    90    1.9     9     3.9   970.9    0.00 
 268    9:00   0.12   62.7    91    0.6    72     2.4   971.0    0.00 
 268    9:10   0.27   63.3    90    0.1    22     1.2   971.0    0.00 
 268    9:20   0.47   64.7    84    0.8   253     3.2   971.0    0.00 
 268    9:30   0.22   65.2    83    2.0   320     5.0   971.1    0.00 
 268    9:40   0.43   64.5    82    1.5   258     3.2   971.0    0.00 
 268    9:50   0.77   66.9    76    1.9   166     4.1   971.0    0.00 
 268   10:00   0.57   68.1    75    1.3    30     4.2   971.0    0.00 
 268   10:10   0.47   67.0    74    1.2    92     2.3   971.0    0.00 
 268   10:20   0.75   68.5    69    1.6    61     4.6   971.0    0.00 
 268   10:30   0.14   68.0    70    0.9   338     2.6   971.0    0.00 
 268   10:40   0.19   66.9    73    1.3    88     2.8   971.0    0.00 
 268   10:50   0.77   68.0    68    2.4    78     6.1   970.8    0.00 
 268   11:00   0.65   69.0    62    1.4    49     6.7   970.6    0.00 
 268   11:10   0.73   68.8    62    2.1   143     5.0   970.6    0.00 
 268   11:20   0.35   69.6    59    2.3    24     8.0   970.6    0.00 
 268   11:30   0.73   69.5    57    1.9    43     8.2   970.5    0.00 
 268   11:40   0.74   70.2    57    3.9    40    11.5   970.5    0.00 
 268   11:50   0.71   70.9    56    2.7   102     8.1   970.4    0.00 
 268   12:00   0.51   70.6    55    2.1    21     8.0   970.4    0.00 
 268   12:10   0.70   70.5    55    2.5    60     6.0   970.3    0.00 
 268   12:20   0.92   72.0    52    3.8    36    10.0   970.1    0.00 
 268   12:30   0.84   72.0    52    3.4    35     8.2   970.0    0.00 
 268   12:40   0.84   72.8    50    3.1     4     8.8   970.0    0.00 
 268   12:50   0.82   71.8    51    5.9    42    12.5   969.9    0.00 
 268   13:00   0.78   71.7    52    3.0   122     7.9   969.9    0.00 
 268   13:10   0.87   72.7    52    6.0    36    14.0   970.1    0.00 
 268   13:20   0.69   73.6    52    3.7    44     9.3   969.7    0.00 
 268   13:30   0.58   72.4    54    5.0    28    11.1   969.5    0.00 
 268   13:40   0.78   71.7    56    6.6    38    17.1   969.5    0.00 
 268   13:50   0.80   71.2    55    5.6    43    11.6   969.5    0.00 
 268   14:00   0.70   70.5    55    6.6    56    16.5   969.5    0.00 
 268   14:10   0.70   70.6    54    6.5    51    12.6   969.5    0.00 
 268   14:20   0.61   70.6    52    5.6    46    13.5   969.5    0.00 
 268   14:30   0.51   70.1    52    5.7    41    15.2   969.5    0.00 
 268   14:40   0.39   68.9    52    5.7    47    13.7   969.4    0.00 
 268   14:50   0.54   70.3    50    5.1    36    13.1   969.3    0.00 
 268   15:00   0.54   69.9    49    4.5    67    11.2   969.3    0.00 
 268   15:10   0.51   68.8    50    3.7    55     9.6   969.2    0.00 
 268   15:20   0.28   68.2    50    3.3    70     9.4   969.2    0.00 
 268   15:30   0.10   68.7    50    4.2    32     8.9   969.0    0.00 
 268   15:40   0.05   68.0    51    4.0    55    10.5   968.9    0.00 
 268   15:50   0.05   67.1    51    2.8    42     6.3   968.8    0.00 
 268   16:00   0.05   67.1    51    4.3    32     8.8   968.8    0.00 
 268   16:10   0.04   66.6    50    2.9    24     8.1   968.8    0.00 
 268   16:20   0.03   66.0    50    1.0    17     3.9   968.8    0.00 
 268   16:30   0.03   65.4    50    2.1    30     5.4   968.9    0.00 
 268   16:40   0.03   65.1    48    2.3    63     7.5   968.9    0.00 
 268   16:50   0.02   64.8    49    1.7   121     4.4   969.0    0.00 
 268   17:00   0.02   64.5    50    1.4   153     3.9   968.9    0.00 
 268   17:10   0.02   64.0    53    0.5   177     1.8   968.9    0.00 
 268   17:20   0.02   63.0    54    0.5   226     2.0   968.8    0.00 
 268   17:30   0.02   62.4    56    0.9   187     3.2   968.9    0.00 
 268   17:40   0.01   62.0    57    0.6   212     2.0   968.9    0.00 
 268   17:50   0.01   61.2    59    1.2   187     2.3   968.9    0.00 
 268   18:00   0.01   61.0    60    0.7   157     2.5   968.9    0.00 
 268   18:10   0.00   60.5    61    0.2   185     1.1   968.7    0.00 
 268   18:20   0.00   59.6    63    0.0   190     0.7   968.5    0.00 
 268   18:30   0.00   58.9    65    0.0     0     0.0   968.5    0.00 
 268   18:40   0.00   58.3    66    0.3    58     1.3   968.4    0.00 
 268   18:50   0.00   57.7    67    0.6   152     1.8   968.4    0.00 
 268   19:00   0.00   57.3    69    0.2   156     1.0   968.4    0.00 
 268   19:10   0.00   56.7    70    0.1   156     0.7   968.5    0.00 
 268   19:20   0.00   56.1    72    0.0     0     0.0   968.5    0.00 
 268   19:30   0.00   55.6    73    0.1   156     0.9   968.6    0.00 
 268   19:40   0.00   55.1    74    0.0   156     0.9   968.5    0.00 
 268   19:50   0.00   54.8    74    0.0     0     0.0   968.6    0.00 
 268   20:00   0.00   54.3    76    0.0     0     0.0   968.5    0.00 
 268   20:10   0.00   53.8    77    0.0     0     0.0   968.6    0.00 
 268   20:20   0.00   53.4    78    0.0     0     0.0   968.6    0.00 
 268   20:30   0.00   53.1    78    0.0     0     0.0   968.6    0.00 
 268   20:40   0.00   52.8    79    0.0     0     0.0   968.7    0.00 
 268   20:50   0.00   52.5    80    0.2   156     1.0   968.7    0.00 
 268   21:00   0.00   52.2    80    0.1   156     0.7   968.6    0.00 
 268   21:10   0.00   51.9    81    0.1   156     0.7   968.5    0.00 
 268   21:20   0.00   51.5    82    0.0     0     0.0   968.5    0.00 
 268   21:30   0.00   51.3    83    0.5   156     1.6   968.4    0.00 
 268   21:40   0.00   51.1    84    0.0   156     0.5   968.3    0.00 
 268   21:50   0.00   50.8    84    0.0     0     0.0   968.2    0.00 
 268   22:00   0.00   50.3    86    0.0     0     0.0   968.2    0.00 
 268   22:10   0.00   50.1    86    0.0     0     0.0   968.2    0.00 
 268   22:20   0.00   49.9    87    0.0     0     0.0   968.2    0.00 
 268   22:30   0.00   49.5    88    0.0     0     0.0   968.2    0.00 
 268   22:40   0.00   49.2    89    0.0     0     0.0   968.3    0.00 
 268   22:50   0.00   49.1    89    0.1   157     0.7   968.4    0.00 
 268   23:00   0.00   49.0    89    0.0   157     0.7   968.4    0.00 
 268   23:10   0.00   48.8    90    0.0     0     0.0   968.3    0.00 
 268   23:20   0.00   48.6    90    0.0     0     0.0   968.3    0.00 

Return to Angelo Coast Range Reserve graphs page.


Western Regional Climate Center,wrcc@dri.edu